createdAt,value
2022-12-06T00:01:45.424Z,78.21
2022-12-06T00:04:17.320Z,77.99
2022-12-06T00:06:51.921Z,78.05
2022-12-06T00:09:24.406Z,78.10
2022-12-06T00:11:52.668Z,78.28
2022-12-06T00:14:20.186Z,78.72
2022-12-06T00:16:48.287Z,78.67
2022-12-06T00:19:24.886Z,78.67
2022-12-06T00:21:52.265Z,78.21
2022-12-06T00:24:22.298Z,78.21
2022-12-06T00:26:53.156Z,78.07
2022-12-06T00:29:27.199Z,78.33
2022-12-06T00:31:54.638Z,78.46
2022-12-06T00:34:21.889Z,78.42
2022-12-06T00:36:51.804Z,78.53
2022-12-06T00:39:19.040Z,78.23
2022-12-06T00:41:46.437Z,78.13
2022-12-06T00:44:13.601Z,78.37
2022-12-06T00:46:41.259Z,78.50
2022-12-06T00:49:09.731Z,78.47
2022-12-06T00:51:38.908Z,78.04
2022-12-06T00:54:09.554Z,78.20
2022-12-06T00:56:42.836Z,78.28
2022-12-06T00:59:10.681Z,78.46
2022-12-06T01:01:38.068Z,78.38
2022-12-06T01:04:06.948Z,78.41
2022-12-06T01:06:36.949Z,78.86
2022-12-06T01:09:18.022Z,79.10
2022-12-06T01:11:51.451Z,78.65
2022-12-06T01:14:19.207Z,78.86
2022-12-06T01:16:46.871Z,78.49
2022-12-06T01:19:14.262Z,79.37
2022-12-06T01:21:41.857Z,78.58
2022-12-06T01:24:09.107Z,78.16
2022-12-06T01:26:36.664Z,78.61
2022-12-06T01:29:04.678Z,78.60
2022-12-06T01:31:38.261Z,78.75
2022-12-06T01:34:17.192Z,78.24
2022-12-06T01:36:50.427Z,78.91
2022-12-06T01:39:20.069Z,79.15
2022-12-06T01:41:47.146Z,78.16
2022-12-06T01:44:49.297Z,78.41
2022-12-06T01:47:32.197Z,78.98
2022-12-06T01:50:34.914Z,79.53
2022-12-06T01:53:08.722Z,78.67
2022-12-06T01:55:41.335Z,79.19
2022-12-06T01:58:23.612Z,79.17
2022-12-06T02:00:50.846Z,78.75
2022-12-06T02:03:28.196Z,78.60
2022-12-06T02:05:58.082Z,79.49
2022-12-06T02:08:26.675Z,79.11
2022-12-06T02:10:54.701Z,79.43
2022-12-06T02:13:23.657Z,79.63
2022-12-06T02:16:09.543Z,79.63
2022-12-06T02:18:58.953Z,79.42
2022-12-06T02:22:16.996Z,79.83
2022-12-06T02:25:15.119Z,80.55
2022-12-06T02:28:42.903Z,80.62
2022-12-06T02:31:38.532Z,80.69
2022-12-06T02:34:17.771Z,80.59
2022-12-06T02:37:13.046Z,80.07
2022-12-06T02:39:53.000Z,80.56
2022-12-06T02:42:42.810Z,81.06
2022-12-06T02:45:19.710Z,80.51
2022-12-06T02:47:53.634Z,80.67
2022-12-06T02:50:34.070Z,80.70
2022-12-06T02:53:06.440Z,80.77
2022-12-06T02:55:34.785Z,81.42
2022-12-06T02:58:01.884Z,81.14
2022-12-06T03:00:35.050Z,81.51
2022-12-06T03:03:16.764Z,81.52
2022-12-06T03:06:07.967Z,81.13
2022-12-06T03:09:14.275Z,80.89
2022-12-06T03:12:38.327Z,81.28
2022-12-06T03:15:13.717Z,81.10
2022-12-06T03:17:54.800Z,80.46
2022-12-06T03:20:42.959Z,79.76
2022-12-06T03:23:40.018Z,80.22
2022-12-06T03:26:19.293Z,80.37
2022-12-06T03:28:50.929Z,80.27
2022-12-06T03:31:23.345Z,79.82
2022-12-06T03:33:58.050Z,80.17
2022-12-06T03:36:32.763Z,79.63
2022-12-06T03:39:09.956Z,80.50
2022-12-06T03:41:55.990Z,80.16
2022-12-06T03:44:24.837Z,80.57
2022-12-06T03:47:07.201Z,80.53
2022-12-06T03:50:12.691Z,80.22
2022-12-06T03:52:40.605Z,80.32
2022-12-06T03:55:11.154Z,79.97
2022-12-06T03:57:38.320Z,80.29
2022-12-06T04:00:06.410Z,79.84
2022-12-06T04:02:33.491Z,79.97
2022-12-06T04:05:00.437Z,80.44
2022-12-06T04:07:27.575Z,80.37
2022-12-06T04:10:05.214Z,80.34
2022-12-06T04:12:54.397Z,79.95
2022-12-06T04:15:25.611Z,80.22
2022-12-06T04:18:13.859Z,79.89
2022-12-06T04:21:22.341Z,79.85
2022-12-06T04:23:51.965Z,80.14
2022-12-06T04:26:23.068Z,80.29
2022-12-06T04:29:12.046Z,80.33
2022-12-06T04:31:59.190Z,80.18
2022-12-06T04:34:45.282Z,79.34
2022-12-06T04:37:31.864Z,80.63
2022-12-06T04:40:01.786Z,80.16
2022-12-06T04:42:47.417Z,79.92
2022-12-06T04:45:18.770Z,79.22
2022-12-06T04:47:48.530Z,80.12
2022-12-06T04:50:15.698Z,80.32
2022-12-06T04:52:42.585Z,80.39
2022-12-06T04:55:09.894Z,80.22
2022-12-06T04:57:37.019Z,79.66
2022-12-06T05:00:05.397Z,80.06
2022-12-06T05:02:32.263Z,80.31
2022-12-06T05:04:59.405Z,79.39
2022-12-06T05:07:26.656Z,79.14
2022-12-06T05:09:56.287Z,78.97
2022-12-06T05:12:23.135Z,78.78
2022-12-06T05:14:50.246Z,78.73
2022-12-06T05:17:17.154Z,79.31
2022-12-06T05:19:44.569Z,78.38
2022-12-06T05:22:14.493Z,80.31
2022-12-06T05:24:41.608Z,80.50
2022-12-06T05:27:08.461Z,80.84
2022-12-06T05:29:35.357Z,80.38
2022-12-06T05:32:02.664Z,79.68
2022-12-06T05:34:29.734Z,79.56
2022-12-06T05:36:57.282Z,79.92
2022-12-06T05:39:24.645Z,79.98
2022-12-06T05:41:54.772Z,80.46
2022-12-06T05:44:21.608Z,80.67
2022-12-06T05:46:49.597Z,79.91
2022-12-06T05:49:16.464Z,80.20
2022-12-06T05:51:44.426Z,80.26
2022-12-06T05:54:11.949Z,79.83
2022-12-06T05:56:39.951Z,79.89
2022-12-06T05:59:06.794Z,79.57
2022-12-06T06:01:34.051Z,78.84
2022-12-06T06:04:01.790Z,78.57
2022-12-06T06:06:29.276Z,77.91
2022-12-06T06:08:56.638Z,78.92
2022-12-06T06:11:23.905Z,79.03
2022-12-06T06:13:51.344Z,79.63
2022-12-06T06:16:19.128Z,79.61
2022-12-06T06:18:46.653Z,80.08
2022-12-06T06:21:14.323Z,81.00
2022-12-06T06:23:41.447Z,80.52
2022-12-06T06:26:12.588Z,79.90
2022-12-06T06:28:39.396Z,80.59
2022-12-06T06:31:07.333Z,80.62
2022-12-06T06:33:36.335Z,80.86
2022-12-06T06:36:07.183Z,80.90
2022-12-06T06:38:39.631Z,80.32
2022-12-06T06:41:07.731Z,80.81
2022-12-06T06:43:34.711Z,80.98
2022-12-06T06:46:07.317Z,80.62
2022-12-06T06:48:39.455Z,80.90
2022-12-06T06:51:13.660Z,80.58
2022-12-06T06:53:41.417Z,81.04
2022-12-06T06:56:10.215Z,80.50
2022-12-06T06:58:41.762Z,81.25
2022-12-06T07:01:21.092Z,81.03
2022-12-06T07:03:52.382Z,80.93
2022-12-06T07:06:19.889Z,80.56
2022-12-06T07:08:47.711Z,80.28
2022-12-06T07:11:15.682Z,80.53
2022-12-06T07:13:48.237Z,80.16
2022-12-06T07:16:20.150Z,80.53
2022-12-06T07:18:47.684Z,79.91
2022-12-06T07:21:17.492Z,79.83
2022-12-06T07:23:44.367Z,79.64
2022-12-06T07:26:20.351Z,80.70
2022-12-06T07:28:50.654Z,79.52
2022-12-06T07:31:25.515Z,80.46
2022-12-06T07:33:55.985Z,80.05
2022-12-06T07:36:25.604Z,80.75
2022-12-06T07:38:57.093Z,80.70
2022-12-06T07:41:49.030Z,79.80
2022-12-06T07:44:36.386Z,80.36
2022-12-06T07:47:04.401Z,80.88
2022-12-06T07:49:31.871Z,80.86
2022-12-06T07:51:59.458Z,80.72
2022-12-06T07:54:27.175Z,80.33
2022-12-06T07:56:56.455Z,80.74
2022-12-06T07:59:24.776Z,81.10
2022-12-06T08:01:53.184Z,81.11
2022-12-06T08:04:21.301Z,81.24
2022-12-06T08:06:48.757Z,80.72
2022-12-06T08:09:26.314Z,81.15
2022-12-06T08:11:53.411Z,81.50
2022-12-06T08:14:20.263Z,81.96
2022-12-06T08:16:47.395Z,81.28
2022-12-06T08:19:14.256Z,81.32
2022-12-06T08:21:41.749Z,81.88
2022-12-06T08:24:09.222Z,81.42
2022-12-06T08:26:36.734Z,81.31
2022-12-06T08:29:04.409Z,81.86
2022-12-06T08:31:34.768Z,81.46
2022-12-06T08:34:03.228Z,81.16
2022-12-06T08:36:31.196Z,81.89
2022-12-06T08:39:04.570Z,81.53
2022-12-06T08:41:51.613Z,82.12
2022-12-06T08:44:20.582Z,81.35
2022-12-06T08:46:52.433Z,82.51
2022-12-06T08:49:20.542Z,81.94
2022-12-06T08:51:48.315Z,81.70
2022-12-06T08:54:19.649Z,81.60
2022-12-06T08:56:47.709Z,81.93
2022-12-06T08:59:15.447Z,81.92
2022-12-06T09:01:43.363Z,81.95
2022-12-06T09:04:12.427Z,82.20
2022-12-06T09:06:44.140Z,82.09
2022-12-06T09:09:16.033Z,81.78
2022-12-06T09:11:45.349Z,82.17
2022-12-06T09:14:22.161Z,81.86
2022-12-06T09:16:51.626Z,81.88
2022-12-06T09:19:19.931Z,82.36
2022-12-06T09:21:47.589Z,81.79
2022-12-06T09:24:20.700Z,81.78
2022-12-06T09:26:50.923Z,82.53
2022-12-06T09:29:19.061Z,81.21
2022-12-06T09:31:46.325Z,82.12
2022-12-06T09:34:14.304Z,82.38
2022-12-06T09:36:55.192Z,81.45
2022-12-06T09:39:24.849Z,81.58
2022-12-06T09:42:21.117Z,81.41
2022-12-06T09:45:25.363Z,82.08
2022-12-06T09:48:27.844Z,81.42
2022-12-06T09:51:16.400Z,81.53
2022-12-06T09:54:30.813Z,81.29
2022-12-06T09:57:22.002Z,80.95
2022-12-06T10:00:16.456Z,81.38
2022-12-06T10:03:20.734Z,81.53
2022-12-06T10:06:16.264Z,80.88
2022-12-06T10:09:16.428Z,81.11
2022-12-06T10:12:08.767Z,82.31
2022-12-06T10:15:09.653Z,80.21
2022-12-06T10:18:20.489Z,81.17
2022-12-06T10:21:01.364Z,81.14
2022-12-06T10:23:50.818Z,81.35
2022-12-06T10:26:28.338Z,81.25
2022-12-06T10:29:33.799Z,81.42
2022-12-06T10:32:17.829Z,80.96
2022-12-06T10:35:12.210Z,81.02
2022-12-06T10:38:01.621Z,79.76
2022-12-06T10:41:01.986Z,81.13
2022-12-06T10:43:55.524Z,80.59
2022-12-06T10:47:13.153Z,80.95
2022-12-06T10:49:50.607Z,80.21
2022-12-06T10:52:49.107Z,80.24
2022-12-06T10:55:33.359Z,78.89
2022-12-06T10:58:20.162Z,78.25
2022-12-06T11:01:01.007Z,79.85
2022-12-06T11:03:43.267Z,78.16
2022-12-06T11:06:32.740Z,78.64
2022-12-06T11:09:29.462Z,78.71
2022-12-06T11:11:57.273Z,77.77
2022-12-06T11:14:41.287Z,79.34
2022-12-06T11:17:28.182Z,78.31
2022-12-06T11:20:26.308Z,77.60
2022-12-06T11:23:11.345Z,77.78
2022-12-06T11:25:57.571Z,76.40
2022-12-06T11:28:42.923Z,77.50
2022-12-06T11:31:49.731Z,77.14
2022-12-06T11:34:30.336Z,77.54
2022-12-06T11:37:00.543Z,76.90
2022-12-06T11:39:31.287Z,77.38
2022-12-06T11:42:05.230Z,77.00
2022-12-06T11:44:50.136Z,76.54
2022-12-06T11:47:23.242Z,76.45
2022-12-06T11:49:54.709Z,76.13
2022-12-06T11:52:37.872Z,76.43
2022-12-06T11:55:20.599Z,76.92
2022-12-06T11:58:19.997Z,75.25
2022-12-06T12:01:16.638Z,75.54
2022-12-06T12:03:48.216Z,76.55
2022-12-06T12:06:22.202Z,75.57
2022-12-06T12:09:06.132Z,75.95
2022-12-06T12:11:40.454Z,76.27
2022-12-06T12:14:18.721Z,76.67
2022-12-06T12:16:53.126Z,76.30
2022-12-06T12:19:39.187Z,76.24
2022-12-06T12:22:40.550Z,76.72
2022-12-06T12:25:20.421Z,76.83
2022-12-06T12:27:51.848Z,76.53
2022-12-06T12:30:24.878Z,76.90
2022-12-06T12:33:05.337Z,75.71
2022-12-06T12:35:35.288Z,76.59
2022-12-06T12:38:24.823Z,76.29
2022-12-06T12:41:12.922Z,76.54
2022-12-06T12:44:13.492Z,76.39
2022-12-06T12:46:52.679Z,76.41
2022-12-06T12:49:31.707Z,75.60
2022-12-06T12:52:01.146Z,75.93
2022-12-06T12:54:36.684Z,75.88
2022-12-06T12:57:14.073Z,76.23
2022-12-06T12:59:45.529Z,75.98
2022-12-06T13:02:28.732Z,75.79
2022-12-06T13:05:32.562Z,76.05
2022-12-06T13:08:15.542Z,75.81
2022-12-06T13:10:51.681Z,74.82
2022-12-06T13:13:34.779Z,73.89
2022-12-06T13:16:10.892Z,74.40
2022-12-06T13:18:59.213Z,75.84
2022-12-06T13:21:41.168Z,75.53
2022-12-06T13:24:22.427Z,75.54
2022-12-06T13:27:05.580Z,76.67
2022-12-06T13:29:40.574Z,75.83
2022-12-06T13:32:27.105Z,75.17
2022-12-06T13:35:02.893Z,75.82
2022-12-06T13:38:21.231Z,76.80
2022-12-06T13:41:01.867Z,75.55
2022-12-06T13:43:49.108Z,76.40
2022-12-06T13:46:28.618Z,74.63
2022-12-06T13:49:26.384Z,75.43
2022-12-06T13:51:55.224Z,74.89
2022-12-06T13:54:31.514Z,74.87
2022-12-06T13:57:21.129Z,76.04
2022-12-06T13:59:48.710Z,75.33
2022-12-06T14:02:46.712Z,75.18
2022-12-06T14:06:15.662Z,75.39
2022-12-06T14:09:02.527Z,74.68
2022-12-06T14:11:39.980Z,75.53
2022-12-06T14:14:20.005Z,75.84
2022-12-06T14:17:02.454Z,76.59
2022-12-06T14:19:42.938Z,75.98
2022-12-06T14:22:30.242Z,76.17
2022-12-06T14:25:10.872Z,76.39
2022-12-06T14:27:51.457Z,75.89
2022-12-06T14:30:26.137Z,75.95
2022-12-06T14:32:58.869Z,76.22
2022-12-06T14:35:30.182Z,76.16
2022-12-06T14:38:21.555Z,76.68
2022-12-06T14:41:14.890Z,76.55
2022-12-06T14:43:47.608Z,76.59
2022-12-06T14:46:17.634Z,76.88
2022-12-06T14:49:05.101Z,76.32
2022-12-06T14:51:41.365Z,77.09
2022-12-06T14:54:45.313Z,77.25
2022-12-06T14:57:39.082Z,75.65
2022-12-06T15:00:17.151Z,75.71
2022-12-06T15:03:08.538Z,77.40
2022-12-06T15:05:41.722Z,76.96
2022-12-06T15:08:27.260Z,76.98
2022-12-06T15:11:49.257Z,76.25
2022-12-06T15:14:29.561Z,75.01
2022-12-06T15:17:10.785Z,74.39
2022-12-06T15:19:49.135Z,74.87
2022-12-06T15:22:25.817Z,75.65
2022-12-06T15:25:00.183Z,75.72
2022-12-06T15:27:28.131Z,75.83
2022-12-06T15:29:55.720Z,75.14
2022-12-06T15:32:25.794Z,74.98
2022-12-06T15:34:53.140Z,74.76
2022-12-06T15:37:39.599Z,73.99
2022-12-06T15:40:08.610Z,74.47
2022-12-06T15:42:36.121Z,75.80
2022-12-06T15:45:04.352Z,75.15
2022-12-06T15:47:31.756Z,74.07
2022-12-06T15:49:58.873Z,74.34
2022-12-06T15:52:26.809Z,74.94
2022-12-06T15:54:53.925Z,75.43
2022-12-06T15:57:20.950Z,74.49
2022-12-06T15:59:48.223Z,74.85
2022-12-06T16:02:18.262Z,75.47
2022-12-06T16:04:48.762Z,75.58
2022-12-06T16:07:19.411Z,74.30
2022-12-06T16:09:48.854Z,75.16
2022-12-06T16:12:16.675Z,75.15
2022-12-06T16:14:44.544Z,74.60
2022-12-06T16:17:12.119Z,75.21
2022-12-06T16:19:59.064Z,74.84
2022-12-06T16:22:46.286Z,75.28
2022-12-06T16:25:13.502Z,73.65
2022-12-06T16:27:40.484Z,74.39
2022-12-06T16:30:09.238Z,75.02
2022-12-06T16:32:36.330Z,74.40
2022-12-06T16:35:03.974Z,74.84
2022-12-06T16:37:31.042Z,73.77
2022-12-06T16:39:58.394Z,74.09
2022-12-06T16:42:28.212Z,73.44
2022-12-06T16:44:56.118Z,75.34
2022-12-06T16:49:49.738Z,74.51
2022-12-06T16:52:17.540Z,74.54
2022-12-06T16:54:44.962Z,73.55
2022-12-06T16:57:13.159Z,72.99
2022-12-06T16:59:42.513Z,72.39
2022-12-06T17:02:31.492Z,73.98
2022-12-06T17:05:03.187Z,73.67
2022-12-06T17:07:30.954Z,72.99
2022-12-06T17:10:00.414Z,74.09
2022-12-06T17:12:32.912Z,73.66
2022-12-06T17:15:00.868Z,72.85
2022-12-06T17:17:29.417Z,73.60
2022-12-06T17:19:56.802Z,72.49
2022-12-06T17:22:24.452Z,73.02
2022-12-06T17:24:51.880Z,73.17
2022-12-06T17:27:18.836Z,72.36
2022-12-06T17:29:45.967Z,72.60
2022-12-06T17:32:14.041Z,73.01
2022-12-06T17:34:41.334Z,72.34
2022-12-06T17:37:08.524Z,72.04
2022-12-06T17:39:36.145Z,71.96
2022-12-06T17:42:22.966Z,72.41
2022-12-06T17:44:52.002Z,72.38
2022-12-06T17:47:19.898Z,71.87
2022-12-06T17:49:52.925Z,71.33
2022-12-06T17:52:20.197Z,71.52
2022-12-06T17:54:47.818Z,72.07
2022-12-06T17:57:18.519Z,72.00
2022-12-06T17:59:50.510Z,72.66
2022-12-06T18:02:24.281Z,71.98
2022-12-06T18:04:52.937Z,71.88
2022-12-06T18:07:20.566Z,72.51
2022-12-06T18:09:49.611Z,71.79
2022-12-06T18:12:18.471Z,71.70
2022-12-06T18:14:46.855Z,71.02
2022-12-06T18:17:14.586Z,72.37
2022-12-06T18:19:46.544Z,71.57
2022-12-06T18:22:13.993Z,71.88
2022-12-06T18:24:41.442Z,72.43
2022-12-06T18:27:08.917Z,71.49
2022-12-06T18:29:38.625Z,71.30
2022-12-06T18:32:05.827Z,71.15
2022-12-06T18:34:33.135Z,71.26
2022-12-06T18:37:00.211Z,70.69
2022-12-06T18:39:28.190Z,70.88
2022-12-06T18:41:55.789Z,72.11
2022-12-06T18:44:23.676Z,70.87
2022-12-06T18:46:51.289Z,71.18
2022-12-06T18:49:18.775Z,70.57
2022-12-06T18:51:45.897Z,70.17
2022-12-06T18:54:16.371Z,70.22
2022-12-06T18:56:44.004Z,69.71
2022-12-06T18:59:13.190Z,70.81
2022-12-06T19:01:50.481Z,68.82
2022-12-06T19:04:19.883Z,70.75
2022-12-06T19:06:48.477Z,70.68
2022-12-06T19:09:23.169Z,70.47
2022-12-06T19:11:50.057Z,70.12
2022-12-06T19:14:18.600Z,70.23
2022-12-06T19:16:58.251Z,70.36
2022-12-06T19:19:26.746Z,69.67
2022-12-06T19:21:55.561Z,69.51
2022-12-06T19:24:27.027Z,69.74
2022-12-06T19:27:00.317Z,69.82
2022-12-06T19:29:29.342Z,69.87
2022-12-06T19:31:56.554Z,70.02
2022-12-06T19:34:27.297Z,69.43
2022-12-06T19:36:58.405Z,69.64
2022-12-06T19:39:27.216Z,69.59
2022-12-06T19:42:15.475Z,68.87
2022-12-06T19:44:43.422Z,68.77
2022-12-06T19:47:10.780Z,69.03
2022-12-06T19:49:45.588Z,69.03
2022-12-06T19:52:12.638Z,69.40
2022-12-06T19:54:41.694Z,68.24
2022-12-06T19:57:08.903Z,68.87
2022-12-06T19:59:39.640Z,69.18
2022-12-06T20:02:16.679Z,68.54
2022-12-06T20:04:46.266Z,68.13
2022-12-06T20:07:13.404Z,68.74
2022-12-06T20:09:41.068Z,68.97
2022-12-06T20:12:08.212Z,68.91
2022-12-06T20:14:40.286Z,68.44
2022-12-06T20:17:20.334Z,67.30
2022-12-06T20:19:51.411Z,68.77
2022-12-06T20:22:22.093Z,68.70
2022-12-06T20:24:49.567Z,68.18
2022-12-06T20:27:16.832Z,68.47
2022-12-06T20:29:44.009Z,68.44
2022-12-06T20:32:11.429Z,67.48
2022-12-06T20:34:40.404Z,68.93
2022-12-06T20:37:07.357Z,68.66
2022-12-06T20:39:35.959Z,68.73
2022-12-06T20:42:06.360Z,69.12
2022-12-06T20:44:41.409Z,68.04
2022-12-06T20:47:08.879Z,68.53
2022-12-06T20:49:36.173Z,68.93
2022-12-06T20:52:04.951Z,68.26
2022-12-06T20:54:32.153Z,69.32
2022-12-06T20:56:59.081Z,68.87
2022-12-06T20:59:26.389Z,67.95
2022-12-06T21:01:53.312Z,68.16
2022-12-06T21:04:20.574Z,68.40
2022-12-06T21:06:47.492Z,67.76
2022-12-06T21:09:14.692Z,67.50
2022-12-06T21:11:44.672Z,68.29
2022-12-06T21:14:14.542Z,69.15
2022-12-06T21:16:44.108Z,68.05
2022-12-06T21:19:16.965Z,68.68
2022-12-06T21:21:50.089Z,68.95
2022-12-06T21:24:21.642Z,68.29
2022-12-06T21:26:50.052Z,68.06
2022-12-06T21:29:28.203Z,69.11
2022-12-06T21:31:59.489Z,69.08
2022-12-06T21:34:26.952Z,69.16
2022-12-06T21:36:54.360Z,68.74
2022-12-06T21:39:22.533Z,68.55
2022-12-06T21:41:50.190Z,67.99
2022-12-06T21:44:17.421Z,68.39
2022-12-06T21:46:44.539Z,68.04
2022-12-06T21:49:12.916Z,68.93
2022-12-06T21:51:39.763Z,69.59
2022-12-06T21:54:07.072Z,67.50
2022-12-06T21:56:35.185Z,68.62
2022-12-06T21:59:04.461Z,67.94
2022-12-06T22:01:32.747Z,68.95
2022-12-06T22:04:03.308Z,68.92
2022-12-06T22:06:33.951Z,68.79
2022-12-06T22:09:06.023Z,68.74
2022-12-06T22:11:34.738Z,68.56
2022-12-06T22:14:05.094Z,68.62
2022-12-06T22:16:33.184Z,68.89
2022-12-06T22:19:04.363Z,68.90
2022-12-06T22:21:35.081Z,69.04
2022-12-06T22:24:02.724Z,68.98
2022-12-06T22:26:31.843Z,68.09
2022-12-06T22:29:00.669Z,68.45
2022-12-06T22:31:37.168Z,69.76
2022-12-06T22:34:05.053Z,69.55
2022-12-06T22:36:32.925Z,70.49
2022-12-06T22:39:02.544Z,68.99
2022-12-06T22:41:30.964Z,69.20
2022-12-06T22:44:02.476Z,69.33
2022-12-06T22:46:31.646Z,68.80
2022-12-06T22:49:01.197Z,69.28
2022-12-06T22:51:37.904Z,69.50
2022-12-06T22:54:11.536Z,69.52
2022-12-06T22:56:40.601Z,68.76
2022-12-06T22:59:10.344Z,69.21
2022-12-06T23:01:37.793Z,70.34
2022-12-06T23:04:07.182Z,70.76
2022-12-06T23:06:38.621Z,69.14
2022-12-06T23:09:07.515Z,70.27
2022-12-06T23:11:36.682Z,70.34
2022-12-06T23:14:04.946Z,69.95
2022-12-06T23:16:33.006Z,70.09
2022-12-06T23:19:07.918Z,69.24
2022-12-06T23:21:36.622Z,69.56
2022-12-06T23:24:12.442Z,70.48
2022-12-06T23:26:57.708Z,70.23
2022-12-06T23:29:25.408Z,69.44
2022-12-06T23:31:52.431Z,69.83
2022-12-06T23:34:26.880Z,69.73
2022-12-06T23:36:55.219Z,69.66
2022-12-06T23:39:25.902Z,68.53
2022-12-06T23:41:52.719Z,70.02
2022-12-06T23:44:20.188Z,69.03
2022-12-06T23:46:47.614Z,70.82
2022-12-06T23:49:19.373Z,70.83
2022-12-06T23:51:47.448Z,69.60
2022-12-06T23:54:18.366Z,69.69
2022-12-06T23:56:46.826Z,69.02
2022-12-06T23:59:16.874Z,70.05
